sensor_id;sensor_type;location;lat;lon;timestamp;P1;durP1;ratioP1;P2;durP2;ratioP2
7338;SDS011;33747;49.524;8.390;2023-11-21T00:02:18;7.03;;;1.80;;
7338;SDS011;33747;49.524;8.390;2023-11-21T00:04:43;7.68;;;1.92;;
7338;SDS011;33747;49.524;8.390;2023-11-21T00:07:09;4.15;;;1.63;;
7338;SDS011;33747;49.524;8.390;2023-11-21T00:09:34;3.83;;;1.50;;
7338;SDS011;33747;49.524;8.390;2023-11-21T00:12:01;5.32;;;1.60;;
7338;SDS011;33747;49.524;8.390;2023-11-21T00:14:27;8.40;;;1.42;;
7338;SDS011;33747;49.524;8.390;2023-11-21T00:16:52;5.13;;;1.88;;
7338;SDS011;33747;49.524;8.390;2023-11-21T00:19:18;6.28;;;1.42;;
7338;SDS011;33747;49.524;8.390;2023-11-21T00:21:44;6.05;;;1.83;;
7338;SDS011;33747;49.524;8.390;2023-11-21T00:24:10;6.95;;;2.05;;
7338;SDS011;33747;49.524;8.390;2023-11-21T00:26:38;5.30;;;1.85;;
7338;SDS011;33747;49.524;8.390;2023-11-21T00:29:06;7.65;;;1.75;;
7338;SDS011;33747;49.524;8.390;2023-11-21T00:31:35;6.30;;;1.83;;
7338;SDS011;33747;49.524;8.390;2023-11-21T00:34:03;2.67;;;1.48;;
7338;SDS011;33747;49.524;8.390;2023-11-21T00:36:30;8.02;;;2.30;;
7338;SDS011;33747;49.524;8.390;2023-11-21T00:38:56;7.28;;;2.28;;
7338;SDS011;33747;49.524;8.390;2023-11-21T00:41:21;6.65;;;2.20;;
7338;SDS011;33747;49.524;8.390;2023-11-21T00:43:46;5.95;;;1.60;;
7338;SDS011;33747;49.524;8.390;2023-11-21T00:46:12;10.90;;;2.20;;
7338;SDS011;33747;49.524;8.390;2023-11-21T00:48:37;10.48;;;3.47;;
7338;SDS011;33747;49.524;8.390;2023-11-21T00:51:03;9.18;;;2.53;;
7338;SDS011;33747;49.524;8.390;2023-11-21T00:53:28;9.30;;;2.40;;
7338;SDS011;33747;49.524;8.390;2023-11-21T00:55:54;5.78;;;1.83;;
7338;SDS011;33747;49.524;8.390;2023-11-21T00:58:22;5.20;;;2.05;;
7338;SDS011;33747;49.524;8.390;2023-11-21T01:00:48;13.32;;;2.60;;
7338;SDS011;33747;49.524;8.390;2023-11-21T01:03:13;4.15;;;1.33;;
7338;SDS011;33747;49.524;8.390;2023-11-21T01:05:39;6.68;;;2.15;;
7338;SDS011;33747;49.524;8.390;2023-11-21T01:08:04;7.22;;;1.70;;
7338;SDS011;33747;49.524;8.390;2023-11-21T01:10:30;6.63;;;2.10;;
7338;SDS011;33747;49.524;8.390;2023-11-21T01:12:56;7.15;;;1.80;;
7338;SDS011;33747;49.524;8.390;2023-11-21T01:15:22;3.63;;;2.00;;
7338;SDS011;33747;49.524;8.390;2023-11-21T01:17:48;5.38;;;1.75;;
7338;SDS011;33747;49.524;8.390;2023-11-21T01:20:13;8.57;;;2.15;;
7338;SDS011;33747;49.524;8.390;2023-11-21T01:22:39;3.72;;;1.55;;
7338;SDS011;33747;49.524;8.390;2023-11-21T01:25:04;5.47;;;2.10;;
7338;SDS011;33747;49.524;8.390;2023-11-21T01:27:32;7.03;;;2.17;;
7338;SDS011;33747;49.524;8.390;2023-11-21T01:30:02;4.97;;;1.58;;
7338;SDS011;33747;49.524;8.390;2023-11-21T01:32:27;4.30;;;1.55;;
7338;SDS011;33747;49.524;8.390;2023-11-21T01:34:53;5.57;;;1.73;;
7338;SDS011;33747;49.524;8.390;2023-11-21T01:37:20;7.75;;;2.20;;
7338;SDS011;33747;49.524;8.390;2023-11-21T01:39:46;6.22;;;1.70;;
7338;SDS011;33747;49.524;8.390;2023-11-21T01:42:12;4.35;;;1.60;;
7338;SDS011;33747;49.524;8.390;2023-11-21T01:44:38;3.20;;;1.42;;
7338;SDS011;33747;49.524;8.390;2023-11-21T01:47:03;10.27;;;1.80;;
7338;SDS011;33747;49.524;8.390;2023-11-21T01:49:32;19.95;;;1.70;;
7338;SDS011;33747;49.524;8.390;2023-11-21T01:51:58;4.65;;;1.85;;
7338;SDS011;33747;49.524;8.390;2023-11-21T01:54:24;5.72;;;1.80;;
7338;SDS011;33747;49.524;8.390;2023-11-21T01:56:50;5.47;;;1.70;;
7338;SDS011;33747;49.524;8.390;2023-11-21T01:59:17;6.60;;;2.22;;
7338;SDS011;33747;49.524;8.390;2023-11-21T02:01:43;7.60;;;2.50;;
7338;SDS011;33747;49.524;8.390;2023-11-21T02:04:09;4.43;;;1.55;;
7338;SDS011;33747;49.524;8.390;2023-11-21T02:06:35;4.57;;;1.55;;
7338;SDS011;33747;49.524;8.390;2023-11-21T02:09:00;4.40;;;1.98;;
7338;SDS011;33747;49.524;8.390;2023-11-21T02:11:25;9.23;;;2.00;;
7338;SDS011;33747;49.524;8.390;2023-11-21T02:13:52;5.35;;;1.55;;
7338;SDS011;33747;49.524;8.390;2023-11-21T02:16:19;1.95;;;1.67;;
7338;SDS011;33747;49.524;8.390;2023-11-21T02:18:45;4.95;;;2.08;;
7338;SDS011;33747;49.524;8.390;2023-11-21T02:21:13;6.35;;;1.40;;
7338;SDS011;33747;49.524;8.390;2023-11-21T02:23:39;7.03;;;1.85;;
7338;SDS011;33747;49.524;8.390;2023-11-21T02:26:09;7.60;;;2.30;;
7338;SDS011;33747;49.524;8.390;2023-11-21T02:28:34;5.95;;;1.65;;
7338;SDS011;33747;49.524;8.390;2023-11-21T02:31:00;7.43;;;2.03;;
7338;SDS011;33747;49.524;8.390;2023-11-21T02:33:27;5.50;;;1.83;;
7338;SDS011;33747;49.524;8.390;2023-11-21T02:35:53;4.07;;;1.73;;
7338;SDS011;33747;49.524;8.390;2023-11-21T02:38:20;6.30;;;2.28;;
7338;SDS011;33747;49.524;8.390;2023-11-21T02:40:47;7.30;;;2.05;;
7338;SDS011;33747;49.524;8.390;2023-11-21T02:43:13;8.32;;;2.03;;
7338;SDS011;33747;49.524;8.390;2023-11-21T02:45:39;5.28;;;2.20;;
7338;SDS011;33747;49.524;8.390;2023-11-21T02:48:06;6.75;;;1.90;;
7338;SDS011;33747;49.524;8.390;2023-11-21T02:50:32;8.13;;;1.70;;
7338;SDS011;33747;49.524;8.390;2023-11-21T02:52:57;4.57;;;1.65;;
7338;SDS011;33747;49.524;8.390;2023-11-21T02:55:25;8.27;;;2.08;;
7338;SDS011;33747;49.524;8.390;2023-11-21T02:57:51;9.82;;;2.22;;
7338;SDS011;33747;49.524;8.390;2023-11-21T03:00:16;2.38;;;1.60;;
7338;SDS011;33747;49.524;8.390;2023-11-21T03:02:42;5.30;;;1.75;;
7338;SDS011;33747;49.524;8.390;2023-11-21T03:05:08;2.63;;;1.55;;
7338;SDS011;33747;49.524;8.390;2023-11-21T03:07:35;4.93;;;2.08;;
7338;SDS011;33747;49.524;8.390;2023-11-21T03:10:03;7.68;;;2.03;;
7338;SDS011;33747;49.524;8.390;2023-11-21T03:12:29;3.47;;;1.75;;
7338;SDS011;33747;49.524;8.390;2023-11-21T03:14:55;2.58;;;1.70;;
7338;SDS011;33747;49.524;8.390;2023-11-21T03:17:20;3.13;;;1.63;;
7338;SDS011;33747;49.524;8.390;2023-11-21T03:19:46;7.55;;;3.53;;
7338;SDS011;33747;49.524;8.390;2023-11-21T03:22:11;6.70;;;2.33;;
7338;SDS011;33747;49.524;8.390;2023-11-21T03:24:37;4.97;;;2.17;;
7338;SDS011;33747;49.524;8.390;2023-11-21T03:27:03;5.45;;;1.75;;
7338;SDS011;33747;49.524;8.390;2023-11-21T03:29:29;6.05;;;1.88;;
7338;SDS011;33747;49.524;8.390;2023-11-21T03:31:54;5.35;;;1.52;;
7338;SDS011;33747;49.524;8.390;2023-11-21T03:34:23;7.32;;;2.03;;
7338;SDS011;33747;49.524;8.390;2023-11-21T03:36:52;9.25;;;2.55;;
7338;SDS011;33747;49.524;8.390;2023-11-21T03:39:18;5.38;;;2.03;;
7338;SDS011;33747;49.524;8.390;2023-11-21T03:41:45;3.10;;;1.58;;
7338;SDS011;33747;49.524;8.390;2023-11-21T03:44:10;3.22;;;1.77;;
7338;SDS011;33747;49.524;8.390;2023-11-21T03:46:35;5.78;;;1.80;;
7338;SDS011;33747;49.524;8.390;2023-11-21T03:49:01;3.55;;;1.90;;
7338;SDS011;33747;49.524;8.390;2023-11-21T03:51:26;10.65;;;2.17;;
7338;SDS011;33747;49.524;8.390;2023-11-21T03:53:51;5.97;;;1.77;;
7338;SDS011;33747;49.524;8.390;2023-11-21T03:56:17;4.50;;;2.28;;
7338;SDS011;33747;49.524;8.390;2023-11-21T03:58:43;6.00;;;2.05;;
7338;SDS011;33747;49.524;8.390;2023-11-21T04:01:08;4.25;;;1.88;;
7338;SDS011;33747;49.524;8.390;2023-11-21T04:03:33;5.53;;;1.88;;
7338;SDS011;33747;49.524;8.390;2023-11-21T04:05:59;10.35;;;1.70;;
7338;SDS011;33747;49.524;8.390;2023-11-21T04:08:26;4.95;;;1.70;;
7338;SDS011;33747;49.524;8.390;2023-11-21T04:10:51;6.20;;;2.45;;
7338;SDS011;33747;49.524;8.390;2023-11-21T04:13:18;5.85;;;2.20;;
7338;SDS011;33747;49.524;8.390;2023-11-21T04:15:44;4.45;;;1.95;;
7338;SDS011;33747;49.524;8.390;2023-11-21T04:18:09;3.72;;;1.90;;
7338;SDS011;33747;49.524;8.390;2023-11-21T04:20:35;2.92;;;1.75;;
7338;SDS011;33747;49.524;8.390;2023-11-21T04:23:00;8.10;;;1.58;;
7338;SDS011;33747;49.524;8.390;2023-11-21T04:25:26;4.68;;;1.80;;
7338;SDS011;33747;49.524;8.390;2023-11-21T04:27:52;3.55;;;1.90;;
7338;SDS011;33747;49.524;8.390;2023-11-21T04:30:18;6.85;;;2.30;;
7338;SDS011;33747;49.524;8.390;2023-11-21T04:32:43;9.73;;;3.95;;
7338;SDS011;33747;49.524;8.390;2023-11-21T04:35:08;7.45;;;2.60;;
7338;SDS011;33747;49.524;8.390;2023-11-21T04:37:34;3.22;;;1.60;;
7338;SDS011;33747;49.524;8.390;2023-11-21T04:39:59;4.82;;;2.30;;
7338;SDS011;33747;49.524;8.390;2023-11-21T04:42:25;3.85;;;2.13;;
7338;SDS011;33747;49.524;8.390;2023-11-21T04:44:50;6.95;;;2.15;;
7338;SDS011;33747;49.524;8.390;2023-11-21T04:47:17;6.18;;;2.80;;
7338;SDS011;33747;49.524;8.390;2023-11-21T04:49:45;10.63;;;2.60;;
7338;SDS011;33747;49.524;8.390;2023-11-21T04:52:12;6.60;;;2.25;;
7338;SDS011;33747;49.524;8.390;2023-11-21T04:54:37;2.97;;;2.33;;
7338;SDS011;33747;49.524;8.390;2023-11-21T04:57:04;2.70;;;1.83;;
7338;SDS011;33747;49.524;8.390;2023-11-21T04:59:32;2.75;;;2.05;;
7338;SDS011;33747;49.524;8.390;2023-11-21T05:01:57;6.28;;;2.85;;
7338;SDS011;33747;49.524;8.390;2023-11-21T05:04:25;13.27;;;4.75;;
7338;SDS011;33747;49.524;8.390;2023-11-21T05:06:50;7.40;;;3.88;;
7338;SDS011;33747;49.524;8.390;2023-11-21T05:09:15;6.50;;;3.22;;
7338;SDS011;33747;49.524;8.390;2023-11-21T05:11:41;8.43;;;3.47;;
7338;SDS011;33747;49.524;8.390;2023-11-21T05:14:06;8.05;;;4.07;;
7338;SDS011;33747;49.524;8.390;2023-11-21T05:16:32;8.02;;;4.15;;
7338;SDS011;33747;49.524;8.390;2023-11-21T05:18:58;8.27;;;3.60;;
7338;SDS011;33747;49.524;8.390;2023-11-21T05:21:28;6.93;;;3.63;;
7338;SDS011;33747;49.524;8.390;2023-11-21T05:24:01;7.90;;;4.35;;
7338;SDS011;33747;49.524;8.390;2023-11-21T05:26:26;8.32;;;4.32;;
7338;SDS011;33747;49.524;8.390;2023-11-21T05:28:52;6.20;;;3.03;;
7338;SDS011;33747;49.524;8.390;2023-11-21T05:31:18;8.18;;;2.67;;
7338;SDS011;33747;49.524;8.390;2023-11-21T05:33:43;7.90;;;2.85;;
7338;SDS011;33747;49.524;8.390;2023-11-21T05:36:09;4.63;;;2.78;;
7338;SDS011;33747;49.524;8.390;2023-11-21T05:38:35;11.50;;;3.28;;
7338;SDS011;33747;49.524;8.390;2023-11-21T05:41:01;9.07;;;3.38;;
7338;SDS011;33747;49.524;8.390;2023-11-21T05:43:30;6.50;;;3.05;;
7338;SDS011;33747;49.524;8.390;2023-11-21T05:45:55;6.05;;;2.97;;
7338;SDS011;33747;49.524;8.390;2023-11-21T05:48:21;4.55;;;2.95;;
7338;SDS011;33747;49.524;8.390;2023-11-21T05:50:46;5.22;;;3.65;;
7338;SDS011;33747;49.524;8.390;2023-11-21T05:53:13;8.40;;;3.50;;
7338;SDS011;33747;49.524;8.390;2023-11-21T05:55:40;4.53;;;3.38;;
7338;SDS011;33747;49.524;8.390;2023-11-21T05:58:06;4.18;;;3.78;;
7338;SDS011;33747;49.524;8.390;2023-11-21T06:00:32;6.15;;;4.15;;
7338;SDS011;33747;49.524;8.390;2023-11-21T06:02:58;7.70;;;4.30;;
7338;SDS011;33747;49.524;8.390;2023-11-21T06:05:24;4.35;;;3.95;;
7338;SDS011;33747;49.524;8.390;2023-11-21T06:07:50;5.43;;;4.43;;
7338;SDS011;33747;49.524;8.390;2023-11-21T06:10:17;4.95;;;4.55;;
7338;SDS011;33747;49.524;8.390;2023-11-21T06:12:44;5.20;;;4.68;;
7338;SDS011;33747;49.524;8.390;2023-11-21T06:15:11;6.40;;;5.57;;
7338;SDS011;33747;49.524;8.390;2023-11-21T06:17:39;7.45;;;5.32;;
7338;SDS011;33747;49.524;8.390;2023-11-21T06:20:06;6.45;;;5.78;;
7338;SDS011;33747;49.524;8.390;2023-11-21T06:22:36;6.18;;;5.68;;
7338;SDS011;33747;49.524;8.390;2023-11-21T06:25:02;6.72;;;6.03;;
7338;SDS011;33747;49.524;8.390;2023-11-21T06:27:29;6.05;;;5.53;;
7338;SDS011;33747;49.524;8.390;2023-11-21T06:29:55;10.82;;;6.43;;
7338;SDS011;33747;49.524;8.390;2023-11-21T06:32:20;7.47;;;5.97;;
7338;SDS011;33747;49.524;8.390;2023-11-21T06:34:47;7.45;;;6.70;;
7338;SDS011;33747;49.524;8.390;2023-11-21T06:37:13;11.50;;;6.90;;
7338;SDS011;33747;49.524;8.390;2023-11-21T06:39:38;9.23;;;7.47;;
7338;SDS011;33747;49.524;8.390;2023-11-21T06:42:03;9.18;;;8.15;;
7338;SDS011;33747;49.524;8.390;2023-11-21T06:44:29;10.73;;;7.60;;
7338;SDS011;33747;49.524;8.390;2023-11-21T06:46:54;9.82;;;8.30;;
7338;SDS011;33747;49.524;8.390;2023-11-21T06:49:20;10.15;;;8.10;;
7338;SDS011;33747;49.524;8.390;2023-11-21T06:51:45;11.98;;;7.88;;
7338;SDS011;33747;49.524;8.390;2023-11-21T06:54:11;9.10;;;8.00;;
7338;SDS011;33747;49.524;8.390;2023-11-21T06:56:36;10.43;;;8.40;;
7338;SDS011;33747;49.524;8.390;2023-11-21T06:59:03;12.65;;;7.97;;
7338;SDS011;33747;49.524;8.390;2023-11-21T07:01:30;10.65;;;8.90;;
7338;SDS011;33747;49.524;8.390;2023-11-21T07:03:58;12.68;;;9.40;;
7338;SDS011;33747;49.524;8.390;2023-11-21T07:06:23;10.63;;;9.40;;
7338;SDS011;33747;49.524;8.390;2023-11-21T07:08:48;9.95;;;8.13;;
7338;SDS011;33747;49.524;8.390;2023-11-21T07:11:14;14.38;;;9.13;;
7338;SDS011;33747;49.524;8.390;2023-11-21T07:13:39;14.32;;;9.15;;
7338;SDS011;33747;49.524;8.390;2023-11-21T07:16:05;10.77;;;9.52;;
7338;SDS011;33747;49.524;8.390;2023-11-21T07:18:30;14.48;;;9.15;;
7338;SDS011;33747;49.524;8.390;2023-11-21T07:20:55;14.57;;;10.43;;
7338;SDS011;33747;49.524;8.390;2023-11-21T07:23:21;10.98;;;8.63;;
7338;SDS011;33747;49.524;8.390;2023-11-21T07:25:47;13.00;;;9.35;;
7338;SDS011;33747;49.524;8.390;2023-11-21T07:28:12;10.52;;;9.35;;
7338;SDS011;33747;49.524;8.390;2023-11-21T07:30:38;12.43;;;10.48;;
7338;SDS011;33747;49.524;8.390;2023-11-21T07:33:03;16.35;;;10.40;;
7338;SDS011;33747;49.524;8.390;2023-11-21T07:35:29;11.43;;;8.90;;
7338;SDS011;33747;49.524;8.390;2023-11-21T07:37:54;14.55;;;10.85;;
7338;SDS011;33747;49.524;8.390;2023-11-21T07:40:19;12.32;;;9.75;;
7338;SDS011;33747;49.524;8.390;2023-11-21T07:42:45;14.00;;;10.10;;
7338;SDS011;33747;49.524;8.390;2023-11-21T07:45:10;12.93;;;9.43;;
7338;SDS011;33747;49.524;8.390;2023-11-21T07:47:36;9.75;;;8.43;;
7338;SDS011;33747;49.524;8.390;2023-11-21T07:50:02;11.55;;;8.60;;
7338;SDS011;33747;49.524;8.390;2023-11-21T07:52:28;12.13;;;8.07;;
7338;SDS011;33747;49.524;8.390;2023-11-21T07:54:54;9.38;;;7.97;;
7338;SDS011;33747;49.524;8.390;2023-11-21T07:57:19;10.20;;;8.02;;
7338;SDS011;33747;49.524;8.390;2023-11-21T07:59:44;9.93;;;7.40;;
7338;SDS011;33747;49.524;8.390;2023-11-21T08:02:10;11.32;;;7.97;;
7338;SDS011;33747;49.524;8.390;2023-11-21T08:04:35;10.68;;;7.93;;
7338;SDS011;33747;49.524;8.390;2023-11-21T08:07:01;8.23;;;6.82;;
7338;SDS011;33747;49.524;8.390;2023-11-21T08:09:27;10.43;;;6.25;;
7338;SDS011;33747;49.524;8.390;2023-11-21T08:11:52;9.57;;;6.22;;
7338;SDS011;33747;49.524;8.390;2023-11-21T08:14:18;5.93;;;5.05;;
7338;SDS011;33747;49.524;8.390;2023-11-21T08:16:43;5.70;;;4.88;;
7338;SDS011;33747;49.524;8.390;2023-11-21T08:19:09;5.07;;;4.15;;
7338;SDS011;33747;49.524;8.390;2023-11-21T08:21:36;6.97;;;3.90;;
7338;SDS011;33747;49.524;8.390;2023-11-21T08:24:02;5.63;;;3.10;;
7338;SDS011;33747;49.524;8.390;2023-11-21T08:26:29;5.32;;;3.83;;
7338;SDS011;33747;49.524;8.390;2023-11-21T08:28:54;5.00;;;4.35;;
7338;SDS011;33747;49.524;8.390;2023-11-21T08:31:25;4.78;;;3.83;;
7338;SDS011;33747;49.524;8.390;2023-11-21T08:33:50;4.60;;;3.90;;
7338;SDS011;33747;49.524;8.390;2023-11-21T08:36:16;3.60;;;3.30;;
7338;SDS011;33747;49.524;8.390;2023-11-21T08:38:41;9.35;;;3.67;;
7338;SDS011;33747;49.524;8.390;2023-11-21T08:41:07;3.70;;;3.30;;
7338;SDS011;33747;49.524;8.390;2023-11-21T08:43:35;4.45;;;2.80;;
7338;SDS011;33747;49.524;8.390;2023-11-21T08:46:04;2.72;;;2.47;;
7338;SDS011;33747;49.524;8.390;2023-11-21T08:48:34;3.47;;;3.15;;
7338;SDS011;33747;49.524;8.390;2023-11-21T08:51:00;7.35;;;3.20;;
7338;SDS011;33747;49.524;8.390;2023-11-21T08:53:26;6.63;;;3.35;;
7338;SDS011;33747;49.524;8.390;2023-11-21T08:55:51;5.35;;;3.17;;
7338;SDS011;33747;49.524;8.390;2023-11-21T08:58:18;8.45;;;4.47;;
7338;SDS011;33747;49.524;8.390;2023-11-21T09:00:44;4.32;;;3.97;;
7338;SDS011;33747;49.524;8.390;2023-11-21T09:03:11;6.40;;;5.20;;
7338;SDS011;33747;49.524;8.390;2023-11-21T09:05:40;6.20;;;4.80;;
7338;SDS011;33747;49.524;8.390;2023-11-21T09:08:05;5.70;;;4.88;;
7338;SDS011;33747;49.524;8.390;2023-11-21T09:10:31;6.40;;;5.15;;
7338;SDS011;33747;49.524;8.390;2023-11-21T09:13:00;7.20;;;5.13;;
7338;SDS011;33747;49.524;8.390;2023-11-21T09:15:26;7.43;;;6.18;;
7338;SDS011;33747;49.524;8.390;2023-11-21T09:17:51;7.30;;;6.40;;
7338;SDS011;33747;49.524;8.390;2023-11-21T09:20:16;10.63;;;7.25;;
7338;SDS011;33747;49.524;8.390;2023-11-21T09:22:42;9.00;;;7.75;;
7338;SDS011;33747;49.524;8.390;2023-11-21T09:25:09;12.18;;;8.68;;
7338;SDS011;33747;49.524;8.390;2023-11-21T09:27:35;12.25;;;8.77;;
7338;SDS011;33747;49.524;8.390;2023-11-21T09:30:03;11.75;;;9.13;;
7338;SDS011;33747;49.524;8.390;2023-11-21T09:32:30;14.88;;;10.63;;
7338;SDS011;33747;49.524;8.390;2023-11-21T09:34:55;18.00;;;10.65;;
7338;SDS011;33747;49.524;8.390;2023-11-21T09:37:23;15.07;;;10.93;;
7338;SDS011;33747;49.524;8.390;2023-11-21T09:39:49;13.00;;;10.07;;
7338;SDS011;33747;49.524;8.390;2023-11-21T09:45:29;16.27;;;11.45;;
7338;SDS011;33747;49.524;8.390;2023-11-21T09:47:59;15.70;;;10.68;;
7338;SDS011;33747;49.524;8.390;2023-11-21T09:50:24;17.20;;;11.07;;
7338;SDS011;33747;49.524;8.390;2023-11-21T09:52:55;17.10;;;11.15;;
7338;SDS011;33747;49.524;8.390;2023-11-21T09:55:26;20.35;;;11.23;;
7338;SDS011;33747;49.524;8.390;2023-11-21T09:57:52;17.48;;;11.20;;
7338;SDS011;33747;49.524;8.390;2023-11-21T10:00:19;15.05;;;10.15;;
7338;SDS011;33747;49.524;8.390;2023-11-21T10:02:48;13.75;;;10.77;;
7338;SDS011;33747;49.524;8.390;2023-11-21T10:05:15;19.38;;;10.38;;
7338;SDS011;33747;49.524;8.390;2023-11-21T10:07:42;13.07;;;8.65;;
7338;SDS011;33747;49.524;8.390;2023-11-21T10:10:09;12.00;;;8.30;;
7338;SDS011;33747;49.524;8.390;2023-11-21T10:12:35;10.88;;;7.75;;
7338;SDS011;33747;49.524;8.390;2023-11-21T10:15:03;10.20;;;7.45;;
7338;SDS011;33747;49.524;8.390;2023-11-21T10:17:32;9.55;;;6.95;;
7338;SDS011;33747;49.524;8.390;2023-11-21T10:20:08;9.32;;;6.75;;
7338;SDS011;33747;49.524;8.390;2023-11-21T10:22:37;8.38;;;6.65;;
7338;SDS011;33747;49.524;8.390;2023-11-21T10:25:03;6.00;;;5.30;;
7338;SDS011;33747;49.524;8.390;2023-11-21T10:27:32;10.40;;;5.35;;
7338;SDS011;33747;49.524;8.390;2023-11-21T10:30:00;7.82;;;5.65;;
7338;SDS011;33747;49.524;8.390;2023-11-21T10:32:29;5.95;;;5.32;;
7338;SDS011;33747;49.524;8.390;2023-11-21T10:34:57;11.38;;;6.40;;
7338;SDS011;33747;49.524;8.390;2023-11-21T10:37:25;8.90;;;6.85;;
7338;SDS011;33747;49.524;8.390;2023-11-21T10:39:55;10.40;;;5.82;;
7338;SDS011;33747;49.524;8.390;2023-11-21T10:42:22;10.30;;;6.40;;
7338;SDS011;33747;49.524;8.390;2023-11-21T10:44:49;7.90;;;5.63;;
7338;SDS011;33747;49.524;8.390;2023-11-21T10:47:15;7.93;;;5.72;;
7338;SDS011;33747;49.524;8.390;2023-11-21T10:49:41;7.82;;;5.43;;
7338;SDS011;33747;49.524;8.390;2023-11-21T10:52:07;6.57;;;5.03;;
7338;SDS011;33747;49.524;8.390;2023-11-21T10:54:33;8.63;;;5.82;;
7338;SDS011;33747;49.524;8.390;2023-11-21T10:57:00;8.18;;;5.35;;
7338;SDS011;33747;49.524;8.390;2023-11-21T10:59:31;7.05;;;5.55;;
7338;SDS011;33747;49.524;8.390;2023-11-21T11:01:59;11.27;;;5.03;;
7338;SDS011;33747;49.524;8.390;2023-11-21T11:04:28;9.30;;;5.93;;
7338;SDS011;33747;49.524;8.390;2023-11-21T11:06:54;11.63;;;5.28;;
7338;SDS011;33747;49.524;8.390;2023-11-21T11:09:21;7.70;;;5.30;;
7338;SDS011;33747;49.524;8.390;2023-11-21T11:11:47;14.63;;;6.15;;
7338;SDS011;33747;49.524;8.390;2023-11-21T11:14:13;10.85;;;5.05;;
7338;SDS011;33747;49.524;8.390;2023-11-21T11:16:39;19.50;;;6.40;;
7338;SDS011;33747;49.524;8.390;2023-11-21T11:19:06;7.95;;;5.80;;
7338;SDS011;33747;49.524;8.390;2023-11-21T11:21:46;8.57;;;5.82;;
7338;SDS011;33747;49.524;8.390;2023-11-21T11:28:38;12.77;;;5.10;;
7338;SDS011;33747;49.524;8.390;2023-11-21T11:34:26;5.18;;;4.68;;
7338;SDS011;33747;49.524;8.390;2023-11-21T11:37:00;8.68;;;4.70;;
7338;SDS011;33747;49.524;8.390;2023-11-21T11:39:31;7.18;;;4.68;;
7338;SDS011;33747;49.524;8.390;2023-11-21T11:42:01;7.05;;;4.22;;
7338;SDS011;33747;49.524;8.390;2023-11-21T11:50:02;10.07;;;4.32;;
7338;SDS011;33747;49.524;8.390;2023-11-21T11:55:05;3.40;;;3.10;;
7338;SDS011;33747;49.524;8.390;2023-11-21T11:57:35;4.55;;;3.33;;
7338;SDS011;33747;49.524;8.390;2023-11-21T12:00:07;10.07;;;3.17;;
7338;SDS011;33747;49.524;8.390;2023-11-21T12:02:36;5.88;;;2.88;;
7338;SDS011;33747;49.524;8.390;2023-11-21T12:05:06;6.07;;;3.00;;
7338;SDS011;33747;49.524;8.390;2023-11-21T12:07:41;3.90;;;3.05;;
7338;SDS011;33747;49.524;8.390;2023-11-21T12:10:14;5.25;;;2.95;;
7338;SDS011;33747;49.524;8.390;2023-11-21T12:12:43;8.25;;;2.90;;
7338;SDS011;33747;49.524;8.390;2023-11-21T12:15:10;4.40;;;3.40;;
7338;SDS011;33747;49.524;8.390;2023-11-21T12:17:36;7.60;;;2.88;;
7338;SDS011;33747;49.524;8.390;2023-11-21T12:20:03;3.17;;;2.28;;
7338;SDS011;33747;49.524;8.390;2023-11-21T12:22:30;10.45;;;2.97;;
7338;SDS011;33747;49.524;8.390;2023-11-21T12:24:56;12.65;;;3.53;;
7338;SDS011;33747;49.524;8.390;2023-11-21T12:27:21;4.80;;;2.97;;
7338;SDS011;33747;49.524;8.390;2023-11-21T12:29:47;6.43;;;3.08;;
7338;SDS011;33747;49.524;8.390;2023-11-21T12:32:12;3.00;;;2.20;;
7338;SDS011;33747;49.524;8.390;2023-11-21T12:34:40;6.80;;;2.75;;
7338;SDS011;33747;49.524;8.390;2023-11-21T12:37:05;2.58;;;2.22;;
7338;SDS011;33747;49.524;8.390;2023-11-21T12:39:31;8.07;;;2.65;;
7338;SDS011;33747;49.524;8.390;2023-11-21T12:41:56;5.85;;;3.35;;
7338;SDS011;33747;49.524;8.390;2023-11-21T12:44:22;8.85;;;3.25;;
7338;SDS011;33747;49.524;8.390;2023-11-21T12:46:49;6.88;;;3.38;;
7338;SDS011;33747;49.524;8.390;2023-11-21T12:49:15;8.90;;;3.47;;
7338;SDS011;33747;49.524;8.390;2023-11-21T12:51:43;8.23;;;4.47;;
7338;SDS011;33747;49.524;8.390;2023-11-21T12:54:09;9.48;;;3.72;;
7338;SDS011;33747;49.524;8.390;2023-11-21T12:56:38;10.02;;;3.95;;
7338;SDS011;33747;49.524;8.390;2023-11-21T12:59:04;11.30;;;3.72;;
7338;SDS011;33747;49.524;8.390;2023-11-21T13:01:29;6.65;;;3.47;;
7338;SDS011;33747;49.524;8.390;2023-11-21T13:03:59;6.32;;;3.28;;
7338;SDS011;33747;49.524;8.390;2023-11-21T13:06:27;7.28;;;3.72;;
7338;SDS011;33747;49.524;8.390;2023-11-21T13:08:53;8.13;;;3.22;;
7338;SDS011;33747;49.524;8.390;2023-11-21T13:11:19;8.18;;;3.50;;
7338;SDS011;33747;49.524;8.390;2023-11-21T13:13:45;8.75;;;3.20;;
7338;SDS011;33747;49.524;8.390;2023-11-21T13:16:11;11.68;;;3.40;;
7338;SDS011;33747;49.524;8.390;2023-11-21T13:18:36;11.15;;;3.90;;
7338;SDS011;33747;49.524;8.390;2023-11-21T13:21:07;4.95;;;2.80;;
7338;SDS011;33747;49.524;8.390;2023-11-21T13:23:40;7.13;;;3.30;;
7338;SDS011;33747;49.524;8.390;2023-11-21T13:26:06;8.32;;;3.15;;
7338;SDS011;33747;49.524;8.390;2023-11-21T13:28:33;5.72;;;3.45;;
7338;SDS011;33747;49.524;8.390;2023-11-21T13:30:59;9.15;;;3.75;;
7338;SDS011;33747;49.524;8.390;2023-11-21T13:33:34;9.05;;;3.50;;
7338;SDS011;33747;49.524;8.390;2023-11-21T13:36:02;6.18;;;3.40;;
7338;SDS011;33747;49.524;8.390;2023-11-21T13:38:32;8.15;;;3.90;;
7338;SDS011;33747;49.524;8.390;2023-11-21T13:40:59;4.88;;;3.33;;
7338;SDS011;33747;49.524;8.390;2023-11-21T13:43:25;11.75;;;3.40;;
7338;SDS011;33747;49.524;8.390;2023-11-21T13:45:51;8.02;;;3.22;;
7338;SDS011;33747;49.524;8.390;2023-11-21T13:48:23;11.27;;;3.13;;
7338;SDS011;33747;49.524;8.390;2023-11-21T13:50:56;5.13;;;2.85;;
7338;SDS011;33747;49.524;8.390;2023-11-21T13:53:30;10.35;;;3.20;;
7338;SDS011;33747;49.524;8.390;2023-11-21T13:55:56;7.13;;;3.03;;
7338;SDS011;33747;49.524;8.390;2023-11-21T13:58:25;6.22;;;3.45;;
7338;SDS011;33747;49.524;8.390;2023-11-21T14:01:06;8.50;;;3.88;;
7338;SDS011;33747;49.524;8.390;2023-11-21T14:03:38;5.35;;;3.42;;
7338;SDS011;33747;49.524;8.390;2023-11-21T14:06:10;9.32;;;4.00;;
7338;SDS011;33747;49.524;8.390;2023-11-21T14:08:40;7.95;;;4.00;;
7338;SDS011;33747;49.524;8.390;2023-11-21T14:11:06;9.95;;;4.80;;
7338;SDS011;33747;49.524;8.390;2023-11-21T14:13:32;10.57;;;4.72;;
7338;SDS011;33747;49.524;8.390;2023-11-21T14:15:58;8.02;;;3.30;;
7338;SDS011;33747;49.524;8.390;2023-11-21T14:18:26;11.85;;;4.13;;
7338;SDS011;33747;49.524;8.390;2023-11-21T14:21:15;11.95;;;4.22;;
7338;SDS011;33747;49.524;8.390;2023-11-21T14:23:41;9.48;;;3.92;;
7338;SDS011;33747;49.524;8.390;2023-11-21T14:26:07;5.65;;;2.90;;
7338;SDS011;33747;49.524;8.390;2023-11-21T14:28:32;9.95;;;3.80;;
7338;SDS011;33747;49.524;8.390;2023-11-21T14:31:00;8.27;;;3.70;;
7338;SDS011;33747;49.524;8.390;2023-11-21T14:33:25;8.48;;;4.47;;
7338;SDS011;33747;49.524;8.390;2023-11-21T14:35:50;9.98;;;4.03;;
7338;SDS011;33747;49.524;8.390;2023-11-21T14:38:16;13.35;;;4.03;;
7338;SDS011;33747;49.524;8.390;2023-11-21T14:40:41;14.45;;;4.07;;
7338;SDS011;33747;49.524;8.390;2023-11-21T14:43:06;9.15;;;3.75;;
7338;SDS011;33747;49.524;8.390;2023-11-21T14:45:32;10.48;;;4.22;;
7338;SDS011;33747;49.524;8.390;2023-11-21T14:47:58;11.27;;;4.15;;
7338;SDS011;33747;49.524;8.390;2023-11-21T14:50:30;8.77;;;4.00;;
7338;SDS011;33747;49.524;8.390;2023-11-21T14:53:04;6.93;;;3.33;;
7338;SDS011;33747;49.524;8.390;2023-11-21T14:55:31;8.43;;;3.95;;
7338;SDS011;33747;49.524;8.390;2023-11-21T14:58:15;8.60;;;4.20;;
7338;SDS011;33747;49.524;8.390;2023-11-21T15:00:45;10.15;;;2.92;;
7338;SDS011;33747;49.524;8.390;2023-11-21T15:03:11;7.13;;;2.95;;
7338;SDS011;33747;49.524;8.390;2023-11-21T15:06:00;6.70;;;3.35;;
7338;SDS011;33747;49.524;8.390;2023-11-21T15:08:43;6.90;;;2.53;;
7338;SDS011;33747;49.524;8.390;2023-11-21T15:11:08;5.03;;;3.22;;
7338;SDS011;33747;49.524;8.390;2023-11-21T15:13:39;8.93;;;4.38;;
7338;SDS011;33747;49.524;8.390;2023-11-21T15:16:04;11.23;;;3.88;;